Hlavní strana
METAR-TAF:

METAR-TAF

Letiště :

Letiště Lublaň

Lublaň, Slovinsko

zeměpisná šířka: 46-13N, zeměpisná délka: 014-29E, výška: 385 m

Aktuální stav počasí

Zpráva byla vytvořena před 28 minutami, v 07:30 UTC
vítr z různých směrů 1 kt
Teplota -1°C
Vlhkost vzduchu 100%
Tlak 1028 hPa
Viditelnost 10 km a více
Žádná oblačnost pod 1500 m, nevyskytují se cumulonimby.

METAR: LJLJ 210730Z VRB01KT CAVOK M01/M01 Q1028 NOSIG

Čas: 08:58 (07:58 UTC)

Předpověď počasí

Zpráva byla vytvořena před 2 hodinami a 58 minutami, v 05:00 UTC
Předpověď platná od 21 v 06 UTC do 22 v 06 UTC
Západoseverozápadní vítr 3 kt
Viditelnost 10 km a více
Žádná oblačnost pod 1500 m, nevyskytují se cumulonimby.
Změna
od 21 v 08 UTC do 21 v 11 UTC
Východojihovýchodní vítr 5 kt
Změna
od 21 v 16 UTC do 21 v 18 UTC
Západoseverozápadní vítr 3 kt

TAF: LJLJ 210500Z 2106/2206 30003KT CAVOK BECMG 2108/2111 12005KT BECMG 2116/2118 30003KT

Stav a předpovědi počasí z více než 4 000 letišť (zprávy METAR a TAF).

Červené a žluté tečky na mapě představují dostupné meteorologické stanice.

Když kurzor umístíte na tečku, zobrazí se název stanice.

Pak kliknutím zobrazíte stav a předpověď počasí.

Chcete-li změnit mapu, kliknutím na zelené tlačítko se znaménkem +mapu přiblížíte, kliknutím na zelené tlačítko se znaménkem – mapu oddálíte a kliknutím na zelené šipky přejdete na sousední mapy.


METAR-TAF: